Time;durP1;ratioP1;P1;durP2;ratioP2;P2;SDS_P1;SDS_P2;PMS_P1;PMS_P2;Temp;Humidity;BMP_temperature;BMP_pressure;BME280_temperature;BME280_humidity;BME280_pressure;Samples;Min_cycle;Max_cycle;Signal;HPM_P1;HPM_P2
2021/12/20 00:03:51;;;;;;;5.13;3.57;;;;;;;19.85;51.84;97389.34;10408194;28;20038;-22
2021/12/20 00:08:51;;;;;;;5.03;3.57;;;;;;;19.84;51.69;97380.03;10405079;28;20041;-23
2021/12/20 00:13:52;;;;;;;5.78;3.42;;;;;;;19.85;51.69;97379.19;10406291;28;20643;-23
2021/12/20 00:18:52;;;;;;;6.73;4.43;;;;;;;19.84;51.72;97383.41;10406329;28;20044;-22
2021/12/20 00:23:52;;;;;;;5.27;3.53;;;;;;;19.84;51.87;97372.41;10403906;28;20041;-22
2021/12/20 00:28:53;;;;;;;5.43;3.77;;;;;;;19.83;51.87;97366.47;10407536;28;20830;-22
2021/12/20 00:33:53;;;;;;;5.67;3.30;;;;;;;19.86;51.72;97370.72;10405440;28;20284;-23
2021/12/20 00:44:12;;;;;;;6.30;3.33;;;;;;;19.85;51.77;97374.09;10405317;28;20037;-23
2021/12/20 00:49:13;;;;;;;5.82;4.47;;;;;;;19.82;51.89;97377.47;10402645;28;20542;-23
2021/12/20 00:54:13;;;;;;;9.97;3.87;;;;;;;19.85;51.93;97376.66;10407778;28;20444;-22
2021/12/20 00:59:13;;;;;;;4.90;3.30;;;;;;;19.82;51.90;97384.22;10402971;28;20041;-23
2021/12/20 01:04:14;;;;;;;6.13;2.60;;;;;;;19.81;51.99;97385.94;10406127;28;20086;-23
2021/12/20 01:09:14;;;;;;;5.80;2.97;;;;;;;19.78;52.19;97367.28;10406578;28;20045;-23
2021/12/20 01:14:22;;;;;;;5.33;3.83;;;;;;;19.81;52.05;97349.50;10405740;28;20032;-23
2021/12/20 01:19:22;;;;;;;4.75;3.42;;;;;;;19.81;52.06;97349.50;10395621;28;20042;-23
2021/12/20 01:24:23;;;;;;;6.10;2.90;;;;;;;19.80;51.95;97353.75;10405892;28;20067;-23
2021/12/20 01:29:23;;;;;;;4.13;3.53;;;;;;;19.84;51.96;97359.69;10405970;28;20036;-22
2021/12/20 01:34:24;;;;;;;5.30;3.15;;;;;;;19.78;52.07;97357.97;10400769;28;20041;-23
2021/12/20 01:39:24;;;;;;;5.90;3.47;;;;;;;19.59;52.02;97340.09;10406294;28;20527;-23
2021/12/20 01:44:24;;;;;;;4.50;2.90;;;;;;;19.79;51.85;97363.91;10404164;28;20048;-22
2021/12/20 01:49:25;;;;;;;4.93;2.63;;;;;;;19.76;52.15;97367.25;10401773;28;20096;-23
2021/12/20 01:54:25;;;;;;;4.18;3.30;;;;;;;19.77;52.01;97360.50;10405121;28;20276;-23
2021/12/20 01:59:25;;;;;;;4.23;2.93;;;;;;;19.80;52.11;97355.44;10401488;28;20048;-23
2021/12/20 02:04:27;;;;;;;4.03;2.83;;;;;;;19.78;51.97;97352.03;10404190;28;20033;-23
2021/12/20 02:09:27;;;;;;;5.78;3.22;;;;;;;19.81;52.00;97352.03;10405824;28;20283;-23
2021/12/20 02:14:28;;;;;;;6.67;3.67;;;;;;;19.77;52.02;97350.34;10402982;28;20043;-23
2021/12/20 02:19:28;;;;;;;4.97;3.10;;;;;;;19.78;51.98;97349.50;10399930;28;20061;-23
2021/12/20 02:24:28;;;;;;;4.77;2.87;;;;;;;19.77;52.08;97350.34;10404593;28;20487;-23
2021/12/20 02:29:43;;;;;;;6.00;2.93;;;;;;;19.77;52.02;97340.19;10404990;28;20564;-23
2021/12/20 02:40:03;;;;;;;5.68;3.25;;;;;;;19.73;52.02;97334.22;10402518;28;20056;-23
2021/12/20 02:45:14;;;;;;;3.85;2.38;;;;;;;19.69;51.86;97319.78;10402813;28;20132;-23
2021/12/20 02:50:15;;;;;;;3.28;2.30;;;;;;;19.80;51.89;97322.41;10402635;28;20051;-23
2021/12/20 02:55:17;;;;;;;4.30;3.05;;;;;;;19.78;52.03;97322.41;10404077;28;20452;-23
2021/12/20 03:00:17;;;;;;;3.08;2.38;;;;;;;19.76;51.91;97310.53;10407153;28;20033;-24
2021/12/20 03:05:18;;;;;;;3.38;2.70;;;;;;;19.75;51.98;97322.38;10409985;28;20040;-23
2021/12/20 03:10:20;;;;;;;3.58;2.22;;;;;;;19.73;52.04;97313.03;10411420;28;20034;-23
2021/12/20 03:15:24;;;;;;;5.35;3.03;;;;;;;19.72;52.19;97314.75;10409496;28;20040;-23
2021/12/20 03:20:24;;;;;;;3.20;2.40;;;;;;;19.69;51.94;97318.97;10404719;28;20060;-23
2021/12/20 03:25:25;;;;;;;2.80;2.20;;;;;;;19.70;52.04;97318.13;10410998;28;20124;-23
2021/12/20 03:30:26;;;;;;;4.15;2.45;;;;;;;19.74;51.86;97329.97;10406278;28;20288;-23
2021/12/20 03:35:26;;;;;;;2.90;2.42;;;;;;;19.73;51.78;97328.28;10405640;28;20040;-23
2021/12/20 03:40:27;;;;;;;3.50;2.50;;;;;;;19.72;51.84;97336.75;10410464;28;20041;-22
2021/12/20 03:45:27;;;;;;;3.90;3.55;;;;;;;19.72;51.92;97350.31;10408888;28;20396;-23
2021/12/20 03:50:27;;;;;;;4.00;2.10;;;;;;;19.73;51.81;97343.53;10408228;28;20033;-23
2021/12/20 03:55:28;;;;;;;4.15;2.40;;;;;;;19.71;51.75;97353.72;10409063;28;20287;-23
2021/12/20 04:00:28;;;;;;;3.60;2.13;;;;;;;19.68;52.08;97346.03;10401647;28;20407;-23
2021/12/20 04:05:29;;;;;;;3.40;2.40;;;;;;;19.69;51.99;97346.91;10407999;28;20306;-23
2021/12/20 04:10:29;;;;;;;3.83;2.40;;;;;;;19.71;52.05;97340.13;10409334;28;20045;-23
2021/12/20 04:15:29;;;;;;;2.97;2.10;;;;;;;19.73;51.93;97333.38;10407452;28;20037;-23
2021/12/20 04:20:30;;;;;;;5.40;2.33;;;;;;;19.72;51.87;97322.38;10402704;28;20075;-23
2021/12/20 04:25:30;;;;;;;5.18;2.65;;;;;;;19.71;51.88;97317.28;10407809;28;20280;-23
2021/12/20 04:30:31;;;;;;;3.33;2.00;;;;;;;19.70;51.77;97297.78;10406660;28;20034;-23
2021/12/20 04:35:32;;;;;;;5.80;2.83;;;;;;;19.67;51.91;97298.63;10401789;28;20063;-22
2021/12/20 04:40:33;;;;;;;4.22;2.53;;;;;;;19.68;51.94;97284.25;10408008;28;20084;-23
2021/12/20 04:45:35;;;;;;;3.07;2.37;;;;;;;19.69;51.97;97296.94;10404169;28;20029;-23
2021/12/20 04:50:35;;;;;;;5.95;2.10;;;;;;;19.74;51.40;97296.94;10395832;28;20288;-23
2021/12/20 04:55:36;;;;;;;5.63;2.40;;;;;;;19.75;51.69;97317.28;10404898;28;20088;-23
2021/12/20 05:00:37;;;;;;;4.27;2.10;;;;;;;19.76;51.72;97308.00;10399484;28;20618;-23
2021/12/20 05:05:37;;;;;;;4.50;2.22;;;;;;;19.77;51.46;97320.69;10404874;28;20132;-23
2021/12/20 05:10:40;;;;;;;2.50;1.80;;;;;;;19.80;51.41;97319.84;10402818;28;20116;-23
2021/12/20 05:15:41;;;;;;;6.15;2.25;;;;;;;19.78;51.52;97312.25;10398508;28;20296;-23
2021/12/20 05:20:41;;;;;;;3.17;1.92;;;;;;;19.82;51.65;97310.53;10400036;28;20063;-23
2021/12/20 05:25:42;;;;;;;5.10;2.00;;;;;;;19.86;51.32;97314.81;10402358;28;20033;-23
2021/12/20 05:30:42;;;;;;;2.72;2.00;;;;;;;19.85;51.26;97306.31;10397314;28;20458;-22
2021/12/20 05:35:43;;;;;;;4.40;2.40;;;;;;;19.79;51.33;97297.84;10397488;28;20029;-23
2021/12/20 05:40:43;;;;;;;3.60;2.60;;;;;;;19.85;51.25;97320.75;10403150;28;20868;-24
2021/12/20 05:45:44;;;;;;;4.83;2.60;;;;;;;19.74;47.91;97318.13;10396535;28;20222;-22
2021/12/20 05:50:44;;;;;;;3.85;2.95;;;;;;;19.24;42.79;97311.09;10399895;28;20325;-23
2021/12/20 05:55:45;;;;;;;4.95;3.47;;;;;;;18.99;41.51;97306.66;10404633;28;20384;-23
2021/12/20 06:00:45;;;;;;;11.18;4.60;;;;;;;18.91;42.40;97306.59;10392404;28;20504;-22
2021/12/20 06:05:45;;;;;;;6.60;2.72;;;;;;;19.37;45.37;97284.94;10386439;28;20044;-23
2021/12/20 06:10:46;;;;;;;11.67;3.43;;;;;;;19.56;45.74;97309.56;10392208;28;20138;-23
2021/12/20 06:15:46;;;;;;;8.13;3.22;;;;;;;19.65;46.50;97314.69;10401028;28;20032;-23
2021/12/20 06:20:47;;;;;;;7.70;3.55;;;;;;;19.69;46.79;97311.34;10398364;28;20045;-23
2021/12/20 06:25:47;;;;;;;9.43;4.03;;;;;;;19.70;47.21;97315.59;10404363;28;20040;-23
2021/12/20 06:30:48;;;;;;;6.45;4.00;;;;;;;19.73;47.89;97302.88;10404367;28;20659;-23
2021/12/20 06:35:48;;;;;;;7.90;3.58;;;;;;;18.28;41.55;97311.09;10406146;28;20035;-22
2021/12/20 06:40:50;;;;;;;3.80;2.80;;;;;;;18.86;43.53;97308.25;10412663;28;20486;-22
2021/12/20 06:45:51;;;;;;;7.10;3.40;;;;;;;19.22;44.54;97315.31;10411416;28;20393;-22
2021/12/20 06:50:51;;;;;;;6.38;2.88;;;;;;;19.35;45.25;97301.84;10407667;28;20112;-22
2021/12/20 06:55:52;;;;;;;5.97;2.80;;;;;;;19.42;46.41;97322.19;10412318;28;20495;-22
2021/12/20 07:00:53;;;;;;;5.93;2.30;;;;;;;19.49;47.03;97328.19;10404416;28;20037;-22
2021/12/20 07:05:53;;;;;;;9.68;3.97;;;;;;;19.52;47.42;97323.13;10409977;28;20523;-22
2021/12/20 07:10:54;;;;;;;6.57;2.30;;;;;;;19.55;47.63;97318.03;10411312;28;20042;-23
2021/12/20 07:15:54;;;;;;;3.70;2.43;;;;;;;19.57;47.85;97316.34;10410072;28;20029;-22
2021/12/20 07:20:54;;;;;;;5.70;2.53;;;;;;;19.52;48.13;97307.88;10405672;28;20037;-22
2021/12/20 07:25:55;;;;;;;8.73;2.20;;;;;;;19.64;48.10;97307.91;10410805;28;20034;-23
2021/12/20 07:30:55;;;;;;;2.80;2.22;;;;;;;19.62;48.42;97307.94;10405722;28;20030;-22
2021/12/20 07:35:56;;;;;;;2.93;2.10;;;;;;;19.63;48.61;97306.22;10405218;28;20033;-23
2021/12/20 07:40:57;;;;;;;3.08;1.85;;;;;;;19.63;48.53;97319.78;10410109;28;20646;-23
2021/12/20 07:45:57;;;;;;;2.67;2.30;;;;;;;19.59;48.94;97319.78;10403800;28;20049;-23
2021/12/20 07:50:59;;;;;;;3.97;2.72;;;;;;;19.64;48.81;97333.31;10406552;28;20038;-22
2021/12/20 07:56:00;;;;;;;3.60;2.20;;;;;;;19.62;49.37;97346.03;10409417;28;20037;-22
2021/12/20 08:01:03;;;;;;;3.53;1.95;;;;;;;19.64;49.19;97348.56;10405113;28;20388;-23
2021/12/20 08:06:05;;;;;;;2.95;2.00;;;;;;;19.64;49.09;97353.66;10408195;28;20041;-22
2021/12/20 08:11:05;;;;;;;3.25;1.90;;;;;;;19.62;49.28;97350.25;10409513;28;20084;-23
2021/12/20 08:16:06;;;;;;;3.70;2.27;;;;;;;19.67;49.07;97346.06;10407064;28;20559;-23
2021/12/20 08:21:06;;;;;;;4.15;2.00;;;;;;;19.65;49.41;97355.34;10403247;28;20033;-22
2021/12/20 08:26:08;;;;;;;3.60;2.63;;;;;;;19.61;49.17;97349.38;10408483;28;20041;-22
2021/12/20 08:31:09;;;;;;;4.15;1.95;;;;;;;19.61;49.44;97343.47;10401746;28;20036;-23
2021/12/20 08:36:12;;;;;;;2.58;2.28;;;;;;;19.63;49.30;97346.88;10402634;28;20044;-23
2021/12/20 08:41:13;;;;;;;3.58;2.28;;;;;;;19.65;49.44;97350.25;10407724;28;20029;-22
2021/12/20 08:46:15;;;;;;;2.85;2.22;;;;;;;19.50;49.30;97330.72;10406114;28;20412;-23
2021/12/20 08:51:16;;;;;;;3.33;1.98;;;;;;;19.63;49.50;97351.94;10404075;28;20037;-23
2021/12/20 08:56:16;;;;;;;2.50;1.80;;;;;;;19.64;49.38;97348.56;10407028;28;20041;-22
2021/12/20 09:01:17;;;;;;;3.60;2.40;;;;;;;19.66;49.41;97350.28;10398452;28;20124;-23
2021/12/20 09:06:22;;;;;;;2.10;1.90;;;;;;;19.64;49.40;97340.94;10405881;28;20045;-23
2021/12/20 09:11:25;;;;;;;2.47;1.92;;;;;;;19.66;49.28;97346.91;10402210;28;20037;-22
2021/12/20 09:16:26;;;;;;;3.22;2.00;;;;;;;19.64;49.41;97351.09;10405844;28;20056;-23
2021/12/20 09:21:26;;;;;;;2.20;1.70;;;;;;;19.62;49.59;97343.50;10400558;28;20200;-23
2021/12/20 09:26:27;;;;;;;2.65;1.88;;;;;;;19.66;49.58;97346.91;10404764;28;20044;-22
2021/12/20 09:31:28;;;;;;;3.30;2.13;;;;;;;19.66;49.57;97352.81;10405472;28;20049;-22
2021/12/20 09:36:29;;;;;;;2.20;1.70;;;;;;;19.62;49.80;97360.41;10401064;28;20044;-22
2021/12/20 09:46:39;;;;;;;3.55;2.00;;;;;;;19.66;49.74;97352.81;10403851;28;20120;-22
2021/12/20 09:51:40;;;;;;;1.80;1.50;;;;;;;19.65;49.71;97360.41;10402763;28;20195;-23
2021/12/20 09:56:43;;;;;;;2.40;1.77;;;;;;;19.66;49.77;97352.00;10405196;28;20045;-23
2021/12/20 10:01:45;;;;;;;1.98;1.83;;;;;;;19.66;49.86;97352.00;10401950;28;20083;-22
2021/12/20 10:06:52;;;;;;;2.25;1.80;;;;;;;19.64;49.84;97343.47;10404888;28;20029;-23
2021/12/20 10:12:25;;;;;;;2.53;2.00;;;;;;;19.65;49.86;97342.63;10413412;28;20415;-23
2021/12/20 10:17:30;;;;;;;1.90;1.70;;;;;;;19.64;50.05;97343.47;10399629;28;20044;-22
2021/12/20 10:22:30;;;;;;;2.03;1.50;;;;;;;19.64;49.93;97335.88;10407372;28;20060;-23
2021/12/20 10:27:36;;;;;;;2.20;1.93;;;;;;;19.65;49.92;97335.03;10412445;28;20034;-22
2021/12/20 10:32:38;;;;;;;2.50;1.88;;;;;;;19.65;49.89;97335.03;10412932;28;20041;-23
2021/12/20 10:37:38;;;;;;;2.40;2.20;;;;;;;19.65;50.01;97329.94;10407605;28;20120;-22
2021/12/20 10:42:43;;;;;;;1.52;1.42;;;;;;;19.66;50.09;97321.50;10407429;28;20492;-23
2021/12/20 10:47:44;;;;;;;1.85;1.33;;;;;;;19.68;50.03;97325.72;10412936;28;20029;-23
2021/12/20 10:52:45;;;;;;;2.35;1.27;;;;;;;19.67;50.02;97316.41;10408657;28;20025;-22
2021/12/20 10:57:45;;;;;;;1.63;1.50;;;;;;;19.70;50.24;97320.66;10412499;28;20030;-22
2021/12/20 11:03:22;;;;;;;1.97;1.40;;;;;;;19.70;50.13;97318.13;10408850;28;20480;-23
2021/12/20 11:13:42;;;;;;;2.05;1.67;;;;;;;19.51;50.57;97275.69;10405014;28;19920;-23
2021/12/20 11:18:43;;;;;;;2.20;1.63;;;;;;;19.66;50.71;97301.19;10409755;28;20041;-23
2021/12/20 11:23:43;;;;;;;2.33;1.40;;;;;;;19.62;50.71;97285.06;10405223;28;20300;-22
2021/12/20 11:28:43;;;;;;;2.53;1.27;;;;;;;19.64;50.56;97297.75;10402706;28;20041;-22
2021/12/20 11:33:44;;;;;;;1.83;1.50;;;;;;;19.66;51.10;97285.94;10404427;28;20021;-23
2021/12/20 11:38:44;;;;;;;1.65;1.40;;;;;;;19.66;50.93;97278.31;10406131;28;20044;-23
2021/12/20 11:43:46;;;;;;;2.40;1.52;;;;;;;19.65;51.12;97263.88;10405935;28;20105;-22
2021/12/20 11:48:52;;;;;;;5.22;1.80;;;;;;;19.67;51.40;97269.84;10406499;28;20025;-22
2021/12/20 11:53:52;;;;;;;21.70;9.73;;;;;;;19.67;51.82;97259.69;10408474;28;20069;-22
2021/12/20 11:58:53;;;;;;;25.43;10.30;;;;;;;19.69;51.47;97251.22;10405069;28;20575;-22
2021/12/20 12:03:57;;;;;;;25.20;10.67;;;;;;;19.77;51.61;97248.72;10406931;28;20296;-23
2021/12/20 12:08:59;;;;;;;22.08;11.38;;;;;;;19.80;51.04;97251.25;10409443;28;20817;-22
2021/12/20 12:14:05;;;;;;;24.35;11.32;;;;;;;19.76;51.56;97236.84;10406092;28;20137;-23
2021/12/20 12:19:05;;;;;;;20.75;11.00;;;;;;;19.68;52.14;97234.28;10406400;28;20037;-23
2021/12/20 12:24:13;;;;;;;20.75;7.88;;;;;;;19.62;50.82;97230.88;10405666;28;20052;-23
2021/12/20 12:29:22;;;;;;;18.30;8.52;;;;;;;19.68;51.91;97223.28;10408924;28;20040;-23
2021/12/20 12:34:36;;;;;;;14.05;7.03;;;;;;;19.69;51.24;97222.44;10402962;28;20038;-23
2021/12/20 12:39:36;;;;;;;17.90;7.28;;;;;;;19.66;51.68;97235.13;10408386;28;20067;-22
2021/12/20 12:44:36;;;;;;;16.95;7.93;;;;;;;19.64;52.15;97222.41;10406565;28;20045;-23
2021/12/20 12:49:48;;;;;;;15.10;6.90;;;;;;;19.70;52.02;97216.50;10404638;28;20052;-23
2021/12/20 12:55:02;;;;;;;13.93;6.93;;;;;;;19.77;51.96;97213.13;10407594;28;20740;-22
2021/12/20 13:00:08;;;;;;;13.05;6.35;;;;;;;19.78;52.04;97214.84;10405535;28;20494;-22
2021/12/20 13:05:21;;;;;;;14.55;6.30;;;;;;;19.77;52.00;97213.13;10405714;28;20514;-23
2021/12/20 13:10:30;;;;;;;13.20;6.05;;;;;;;19.75;52.32;97210.59;10406800;28;20480;-23
2021/12/20 13:15:35;;;;;;;13.20;6.60;;;;;;;19.79;52.26;97207.22;10405679;28;20037;-23
2021/12/20 13:20:49;;;;;;;22.25;6.53;;;;;;;19.72;50.45;97209.72;10400171;28;20037;-23
2021/12/20 13:25:49;;;;;;;12.13;5.55;;;;;;;19.77;52.78;97208.06;10404440;28;20451;-23
2021/12/20 13:31:04;;;;;;;11.48;5.90;;;;;;;19.70;53.06;97216.50;10405781;28;20029;-22
2021/12/20 13:36:13;;;;;;;9.27;5.22;;;;;;;19.74;52.58;97213.13;10392920;28;20033;-23
2021/12/20 13:41:19;;;;;;;13.00;4.95;;;;;;;19.75;52.22;97209.75;10402577;28;20099;-23
2021/12/20 13:46:29;;;;;;;10.53;5.47;;;;;;;19.76;52.27;97221.59;10398794;28;20064;-23
2021/12/20 13:51:44;;;;;;;10.90;5.18;;;;;;;19.72;52.27;97210.59;10406902;28;20044;-23
2021/12/20 13:56:56;;;;;;;8.68;4.88;;;;;;;19.67;52.40;97222.41;10409702;28;20484;-23
2021/12/20 14:01:59;;;;;;;13.93;4.75;;;;;;;19.64;52.46;97229.16;10407536;28;20064;-22
2021/12/20 14:07:00;;;;;;;13.98;5.32;;;;;;;19.66;53.28;97222.44;10403669;28;20041;-23
2021/12/20 14:12:15;;;;;;;16.45;5.82;;;;;;;19.64;53.38;97221.56;10405672;28;20307;-22
2021/12/20 14:17:15;;;;;;;12.40;5.05;;;;;;;19.66;53.23;97224.97;10401933;28;20584;-23
2021/12/20 14:22:17;;;;;;;10.33;5.13;;;;;;;19.66;52.97;97224.97;10404553;28;20144;-23
2021/12/20 14:27:23;;;;;;;13.68;4.80;;;;;;;19.78;52.81;97214.84;10404014;28;20045;-23
2021/12/20 14:32:36;;;;;;;;;;;;;;;19.80;52.42;97218.22;10400928;28;20415;-23
2021/12/20 14:37:37;;;;;;;13.75;4.45;;;;;;;19.74;52.62;97223.28;10400050;28;20407;-23
2021/12/20 14:42:38;;;;;;;7.20;3.85;;;;;;;19.63;52.14;97222.41;10395570;28;20045;-23
2021/12/20 14:47:41;;;;;;;10.00;4.80;;;;;;;19.68;52.32;97220.72;10398501;28;20458;-23
2021/12/20 14:52:41;;;;;;;9.90;4.07;;;;;;;19.67;52.31;97226.66;10396749;28;20513;-22
2021/12/20 14:57:52;;;;;;;8.32;4.82;;;;;;;19.28;51.33;97216.34;10409935;28;20102;-24
2021/12/20 15:02:52;;;;;;;12.07;5.00;;;;;;;19.48;51.26;97222.34;10404463;28;20120;-23
2021/12/20 15:07:53;;;;;;;10.93;4.90;;;;;;;19.53;51.13;97213.06;10405955;28;20041;-22
2021/12/20 15:12:53;;;;;;;15.30;6.20;;;;;;;19.58;50.74;97212.22;10409634;28;20037;-23
2021/12/20 15:17:53;;;;;;;9.60;5.47;;;;;;;19.63;51.25;97219.84;10407151;28;20292;-22
2021/12/20 15:22:54;;;;;;;11.50;5.97;;;;;;;19.62;51.45;97218.16;10408253;28;20741;-23
2021/12/20 15:27:55;;;;;;;12.90;6.07;;;;;;;19.62;51.42;97218.16;10410332;28;20503;-23
2021/12/20 15:32:56;;;;;;;10.57;6.10;;;;;;;19.61;51.76;97224.09;10413305;28;20284;-23
2021/12/20 15:37:57;;;;;;;11.57;7.43;;;;;;;19.61;51.90;97213.94;10403308;28;20052;-23
2021/12/20 15:42:59;;;;;;;13.27;6.50;;;;;;;19.61;52.02;97216.47;10411501;28;20037;-23
2021/12/20 15:47:59;;;;;;;12.15;6.28;;;;;;;19.61;51.95;97229.16;10404157;28;20035;-23
2021/12/20 15:53:00;;;;;;;10.60;6.35;;;;;;;19.59;51.90;97228.31;10409709;28;20042;-23
2021/12/20 15:58:00;;;;;;;11.45;6.00;;;;;;;19.63;52.00;97225.81;10402691;28;20492;-23
2021/12/20 16:03:01;;;;;;;15.03;8.13;;;;;;;19.64;52.53;97237.66;10408037;28;20126;-22
2021/12/20 16:08:01;;;;;;;17.02;10.05;;;;;;;19.68;52.58;97238.53;10398873;28;20391;-23
2021/12/20 16:13:02;;;;;;;19.30;12.50;;;;;;;19.63;53.24;97230.03;10404911;28;20045;-23
2021/12/20 16:18:02;;;;;;;19.65;11.32;;;;;;;19.62;53.96;97230.88;10408242;28;20121;-23
2021/12/20 16:23:03;;;;;;;15.63;11.65;;;;;;;19.62;54.23;97229.19;10403995;28;20037;-23
2021/12/20 16:28:04;;;;;;;17.88;10.63;;;;;;;19.62;54.62;97233.41;10408022;28;20041;-23
2021/12/20 16:33:07;;;;;;;18.23;11.60;;;;;;;19.66;54.71;97237.66;10407365;28;20038;-23
2021/12/20 16:38:08;;;;;;;14.98;9.68;;;;;;;19.65;54.29;97228.31;10408216;28;20041;-23
2021/12/20 16:43:08;;;;;;;14.27;9.07;;;;;;;19.68;54.04;97230.91;10404093;28;20419;-23
2021/12/20 16:48:20;;;;;;;14.50;9.67;;;;;;;19.74;53.80;97224.13;10402791;28;20491;-23
2021/12/20 16:53:21;;;;;;;16.67;9.70;;;;;;;19.74;54.47;97223.28;10402632;28;20378;-23
2021/12/20 16:58:21;;;;;;;16.92;10.00;;;;;;;19.76;54.38;97216.53;10402266;28;20438;-23
2021/12/20 17:08:24;;;;;;;15.50;9.23;;;;;;;19.76;54.08;97214.81;10400501;28;20187;-23
2021/12/20 17:13:25;;;;;;;17.40;10.20;;;;;;;19.70;54.52;97211.41;10401649;28;20125;-23
2021/12/20 17:18:25;;;;;;;14.43;9.15;;;;;;;19.68;54.26;97213.13;10402831;28;20041;-23
2021/12/20 17:23:27;;;;;;;14.15;9.48;;;;;;;19.66;54.39;97219.91;10401986;28;20037;-23
2021/12/20 17:28:27;;;;;;;14.15;8.38;;;;;;;19.67;54.09;97222.41;10403854;28;20029;-23
2021/12/20 17:33:27;;;;;;;12.33;8.20;;;;;;;19.65;53.38;97224.09;10406267;28;20029;-23
2021/12/20 17:38:28;;;;;;;15.93;9.73;;;;;;;19.66;54.15;97233.41;10393649;28;20304;-23
2021/12/20 17:43:29;;;;;;;16.88;8.93;;;;;;;19.67;54.15;97232.56;10397955;28;20076;-23
2021/12/20 17:48:30;;;;;;;18.05;9.48;;;;;;;19.60;54.70;97212.25;10397432;28;20049;-23
2021/12/20 17:53:30;;;;;;;12.88;9.55;;;;;;;19.58;54.43;97211.41;10400163;28;20503;-23
2021/12/20 17:58:31;;;;;;;18.42;9.45;;;;;;;19.60;54.25;97220.69;10397424;28;20044;-23
2021/12/20 18:03:32;;;;;;;17.88;9.18;;;;;;;19.66;54.09;97219.91;10404022;28;20040;-22
2021/12/20 18:08:32;;;;;;;16.35;8.90;;;;;;;19.60;55.28;97205.44;10400008;28;20029;-23
2021/12/20 18:13:33;;;;;;;14.73;9.07;;;;;;;19.55;55.06;97209.69;10400736;28;20123;-23
2021/12/20 18:18:33;;;;;;;14.63;9.03;;;;;;;19.56;54.81;97215.59;10404848;28;20046;-23
2021/12/20 18:23:37;;;;;;;12.38;8.25;;;;;;;19.51;54.44;97204.59;10392624;28;20411;-23
2021/12/20 18:28:38;;;;;;;15.95;9.77;;;;;;;19.64;54.14;97219.00;10394524;28;20408;-23
2021/12/20 18:33:38;;;;;;;11.50;7.63;;;;;;;19.58;54.34;97226.63;10404112;28;20029;-22
2021/12/20 18:38:39;;;;;;;13.45;8.05;;;;;;;19.60;54.06;97219.84;10394845;28;20037;-23
2021/12/20 18:43:39;;;;;;;12.85;8.65;;;;;;;19.60;54.24;97224.94;10400313;28;20040;-23
2021/12/20 18:48:46;;;;;;;18.08;8.00;;;;;;;19.59;54.14;97228.31;10399445;28;20116;-23
2021/12/20 18:53:46;;;;;;;10.77;7.90;;;;;;;19.54;54.38;97219.81;10403128;28;20029;-23
2021/12/20 18:58:47;;;;;;;14.50;8.47;;;;;;;19.49;54.52;97216.44;10407809;28;20041;-23
2021/12/20 19:03:47;;;;;;;9.43;7.85;;;;;;;19.52;54.21;97211.38;10394525;28;20296;-22
2021/12/20 19:08:48;;;;;;;14.43;7.87;;;;;;;19.55;53.87;97208.81;10406998;28;20033;-24
2021/12/20 19:14:03;;;;;;;14.75;8.40;;;;;;;19.53;54.39;97207.97;10404493;28;20857;-22
2021/12/20 19:19:05;;;;;;;15.45;8.00;;;;;;;19.54;54.45;97213.06;10400514;28;20070;-22
2021/12/20 19:24:07;;;;;;;17.95;8.40;;;;;;;19.53;54.85;97210.50;10405493;28;20033;-23
2021/12/20 19:29:09;;;;;;;17.35;8.98;;;;;;;19.50;55.02;97213.06;10403950;28;20615;-22
2021/12/20 19:34:10;;;;;;;15.73;8.73;;;;;;;19.52;54.71;97207.13;10401371;28;20585;-23
2021/12/20 19:39:12;;;;;;;19.67;10.38;;;;;;;19.51;54.78;97210.50;10410223;28;20046;-22
2021/12/20 19:44:14;;;;;;;14.13;9.10;;;;;;;19.52;54.94;97211.38;10400947;28;20040;-22
2021/12/20 19:49:16;;;;;;;13.45;8.95;;;;;;;19.51;54.64;97207.13;10401022;28;20600;-23
2021/12/20 19:54:17;;;;;;;16.30;9.57;;;;;;;19.53;54.43;97206.31;10405043;28;20519;-22
2021/12/20 19:59:18;;;;;;;17.05;9.85;;;;;;;19.54;54.46;97200.38;10399542;28;20124;-23
2021/12/20 20:04:22;;;;;;;13.03;8.77;;;;;;;19.52;54.31;97201.22;10401841;28;20045;-22
2021/12/20 20:09:24;;;;;;;15.23;8.85;;;;;;;19.53;54.28;97197.81;10403554;28;20288;-22
2021/12/20 20:14:25;;;;;;;14.85;9.25;;;;;;;19.51;54.28;97194.44;10400727;28;20478;-23
2021/12/20 20:19:26;;;;;;;12.55;9.07;;;;;;;19.49;54.29;97203.75;10401375;28;20056;-23
2021/12/20 20:24:27;;;;;;;13.93;9.63;;;;;;;19.44;54.79;97196.06;10405230;28;20034;-23
2021/12/20 20:29:27;;;;;;;16.27;9.57;;;;;;;19.51;54.37;97209.66;10396744;28;20492;-23
2021/12/20 20:34:27;;;;;;;13.73;9.40;;;;;;;19.53;54.56;97203.75;10393423;28;20033;-23
2021/12/20 20:39:28;;;;;;;13.40;9.57;;;;;;;19.53;54.29;97195.28;10401759;28;20472;-23
2021/12/20 20:44:29;;;;;;;15.63;9.02;;;;;;;19.54;54.39;97191.88;10401914;28;20394;-23
2021/12/20 20:49:30;;;;;;;14.82;9.25;;;;;;;19.50;53.75;97190.19;10405491;28;20049;-23
2021/12/20 20:54:31;;;;;;;20.60;10.95;;;;;;;19.48;54.19;97189.31;10406068;28;20044;-23
2021/12/20 20:59:31;;;;;;;24.10;10.88;;;;;;;19.53;54.13;97182.59;10404474;28;20030;-24
2021/12/20 21:04:32;;;;;;;26.90;12.73;;;;;;;19.49;54.73;97180.88;10404398;28;20496;-23
2021/12/20 21:09:38;;;;;;;26.35;12.32;;;;;;;19.55;54.53;97199.53;10406478;28;20512;-23
2021/12/20 21:14:41;;;;;;;20.75;10.73;;;;;;;19.53;51.09;97192.75;10398788;28;20033;-23
2021/12/20 21:19:41;;;;;;;25.77;10.93;;;;;;;19.58;52.30;97191.06;10401570;28;20102;-23
2021/12/20 21:24:41;;;;;;;21.33;10.70;;;;;;;19.61;52.11;97180.91;10405332;28;20025;-23
2021/12/20 21:29:42;;;;;;;18.43;10.07;;;;;;;19.56;52.71;97177.50;10406296;28;20029;-23
2021/12/20 21:34:42;;;;;;;23.95;9.75;;;;;;;19.57;52.71;97174.97;10402942;28;20288;-24
2021/12/20 21:39:43;;;;;;;21.77;9.70;;;;;;;19.54;52.90;97171.56;10405672;28;20033;-23
2021/12/20 21:44:44;;;;;;;17.13;8.73;;;;;;;19.53;52.82;97165.66;10402366;28;20040;-23
2021/12/20 21:49:45;;;;;;;17.02;8.23;;;;;;;19.54;52.92;97166.50;10396561;28;20041;-23
2021/12/20 21:54:46;;;;;;;15.98;8.52;;;;;;;19.55;52.84;97169.03;10403868;28;20116;-23
2021/12/20 21:59:46;;;;;;;16.10;7.97;;;;;;;19.52;53.26;97163.09;10404469;28;20034;-23
2021/12/20 22:04:48;;;;;;;20.58;8.73;;;;;;;19.52;53.47;97165.66;10402378;28;20580;-23
2021/12/20 22:09:49;;;;;;;16.95;7.35;;;;;;;19.50;53.59;97149.56;10408856;28;20075;-23
2021/12/20 22:14:49;;;;;;;14.75;7.38;;;;;;;19.49;53.44;97148.69;10411012;28;20083;-23
2021/12/20 22:19:50;;;;;;;18.60;7.90;;;;;;;19.47;53.62;97136.84;10407917;28;20037;-23
2021/12/20 22:24:51;;;;;;;15.98;7.20;;;;;;;19.49;53.37;97145.34;10407571;28;20025;-24
2021/12/20 22:29:51;;;;;;;17.35;6.85;;;;;;;19.49;53.38;97147.88;10407352;28;20025;-23
2021/12/20 22:34:52;;;;;;;12.20;6.70;;;;;;;19.53;53.18;97144.47;10410953;28;20033;-23
2021/12/20 22:39:54;;;;;;;12.48;7.53;;;;;;;19.54;52.90;97133.47;10412588;28;20302;-23
2021/12/20 22:44:55;;;;;;;12.40;6.97;;;;;;;19.53;52.88;97131.78;10411664;28;20029;-23
2021/12/20 22:50:02;;;;;;;15.50;7.60;;;;;;;19.52;53.30;97135.16;10407970;28;20411;-24
2021/12/20 22:55:04;;;;;;;14.63;6.78;;;;;;;19.51;53.14;97143.63;10412252;28;20097;-23
2021/12/20 23:00:25;;;;;;;11.73;6.95;;;;;;;19.49;53.15;97136.00;10406983;28;20033;-23
2021/12/20 23:05:26;;;;;;;14.00;7.32;;;;;;;19.48;53.21;97138.53;10403699;28;20075;-24
2021/12/20 23:10:29;;;;;;;12.15;6.57;;;;;;;19.45;53.33;97148.69;10411450;28;20059;-22
2021/12/20 23:15:35;;;;;;;10.15;6.50;;;;;;;19.48;53.05;97149.56;10410181;28;20108;-23
2021/12/20 23:20:35;;;;;;;14.65;7.10;;;;;;;19.49;53.14;97140.25;10406272;28;20076;-23
2021/12/20 23:25:40;;;;;;;14.25;7.13;;;;;;;19.52;53.10;97130.09;10408602;28;20117;-23
2021/12/20 23:30:43;;;;;;;12.38;5.82;;;;;;;19.51;53.10;97128.41;10410314;28;20037;-24
2021/12/20 23:35:44;;;;;;;14.57;6.30;;;;;;;19.48;53.12;97124.16;10406732;28;20025;-23
2021/12/20 23:40:47;;;;;;;11.98;6.13;;;;;;;19.48;53.33;97110.59;10409120;28;20033;-23
2021/12/20 23:45:50;;;;;;;11.63;6.20;;;;;;;19.49;52.96;97110.59;10407642;28;20116;-23